createdAt,value
2022-11-30T00:02:38.751Z,6.2
2022-11-30T00:07:38.829Z,6.1
2022-11-30T00:12:38.439Z,6.2
2022-11-30T00:17:38.354Z,6.2
2022-11-30T00:22:38.250Z,6.2
2022-11-30T00:27:38.245Z,6.2
2022-11-30T00:32:38.090Z,6.2
2022-11-30T00:37:37.967Z,6.1
2022-11-30T00:42:37.872Z,6.1
2022-11-30T00:47:37.754Z,6.1
2022-11-30T00:52:37.690Z,6.0
2022-11-30T00:57:37.679Z,6.1
2022-11-30T01:02:37.587Z,6.0
2022-11-30T01:07:37.565Z,6.1
2022-11-30T01:12:37.267Z,6.1
2022-11-30T01:17:37.150Z,5.9
2022-11-30T01:22:37.083Z,5.9
2022-11-30T01:27:37.025Z,5.7
2022-11-30T01:32:36.866Z,5.6
2022-11-30T01:37:36.867Z,5.5
2022-11-30T01:42:36.704Z,5.4
2022-11-30T01:47:36.594Z,5.4
2022-11-30T01:52:36.511Z,5.5
2022-11-30T01:57:36.359Z,5.6
2022-11-30T02:02:36.300Z,5.4
2022-11-30T02:07:36.398Z,5.4
2022-11-30T02:12:36.075Z,5.4
2022-11-30T02:17:35.967Z,5.4
2022-11-30T02:22:39.873Z,5.2
2022-11-30T02:27:35.696Z,5.4
2022-11-30T02:32:35.619Z,5.4
2022-11-30T02:37:35.505Z,5.3
2022-11-30T02:42:35.402Z,5.2
2022-11-30T02:47:35.370Z,5.1
2022-11-30T02:52:35.214Z,5.0
2022-11-30T02:57:35.043Z,5.0
2022-11-30T03:02:34.949Z,5.2
2022-11-30T03:12:34.550Z,5.3
2022-11-30T03:17:34.355Z,5.3
2022-11-30T03:22:34.406Z,5.2
2022-11-30T03:27:36.555Z,5.3
2022-11-30T03:32:33.960Z,5.2
2022-11-30T03:37:33.814Z,5.3
2022-11-30T03:42:33.722Z,5.2
2022-11-30T03:47:33.715Z,5.3
2022-11-30T03:52:35.874Z,5.2
2022-11-30T03:57:33.328Z,5.2
2022-11-30T04:02:33.248Z,5.2
2022-11-30T04:07:33.111Z,5.1
2022-11-30T04:12:32.933Z,5.2
2022-11-30T04:17:32.800Z,5.2
2022-11-30T04:27:32.547Z,5.1
2022-11-30T04:32:33.325Z,5.2
2022-11-30T04:37:32.436Z,5.2
2022-11-30T04:42:32.187Z,5.4
2022-11-30T04:47:32.050Z,5.3
2022-11-30T04:52:31.923Z,5.4
2022-11-30T04:57:31.789Z,5.4
2022-11-30T05:02:31.652Z,5.3
2022-11-30T05:07:31.527Z,5.4
2022-11-30T05:12:31.347Z,5.5
2022-11-30T05:17:31.132Z,5.4
2022-11-30T05:22:30.979Z,5.5
2022-11-30T05:27:30.802Z,5.6
2022-11-30T05:32:30.626Z,5.6
2022-11-30T05:37:30.419Z,5.8
2022-11-30T05:42:30.240Z,5.8
2022-11-30T05:47:30.191Z,5.8
2022-11-30T05:57:29.640Z,5.9
2022-11-30T06:02:29.496Z,5.9
2022-11-30T06:07:29.266Z,5.9
2022-11-30T06:12:31.134Z,5.9
2022-11-30T06:17:29.007Z,5.9
2022-11-30T06:22:28.917Z,5.9
2022-11-30T06:27:28.813Z,5.9
2022-11-30T06:32:28.655Z,5.9
2022-11-30T06:37:28.509Z,6.0
2022-11-30T06:42:28.365Z,5.9
2022-11-30T06:47:28.245Z,5.9
2022-11-30T06:52:28.098Z,6.0
2022-11-30T06:57:27.959Z,6.1
2022-11-30T07:02:27.817Z,6.1
2022-11-30T07:07:27.761Z,5.9
2022-11-30T07:12:27.600Z,5.9
2022-11-30T07:17:27.426Z,5.9
2022-11-30T07:22:29.844Z,5.9
2022-11-30T07:27:27.191Z,5.9
2022-11-30T07:32:27.040Z,5.9
2022-11-30T07:37:26.886Z,6.0
2022-11-30T07:42:26.894Z,6.0
2022-11-30T07:47:26.743Z,6.0
2022-11-30T07:52:30.939Z,6.1
2022-11-30T07:57:26.329Z,6.1
2022-11-30T08:02:26.305Z,6.0
2022-11-30T08:12:25.901Z,6.1
2022-11-30T08:22:25.637Z,6.2
2022-11-30T08:27:25.471Z,6.1
2022-11-30T08:32:25.398Z,6.3
2022-11-30T08:37:25.231Z,6.4
2022-11-30T08:42:25.159Z,6.4
2022-11-30T08:47:22.306Z,6.5
2022-11-30T08:47:24.919Z,6.5
2022-11-30T08:52:24.945Z,6.6
2022-11-30T08:57:24.835Z,6.6
2022-11-30T09:02:24.775Z,6.7
2022-11-30T09:07:24.694Z,6.7
2022-11-30T09:12:27.051Z,6.7
2022-11-30T09:17:24.541Z,6.9
2022-11-30T09:22:24.205Z,7.0
2022-11-30T09:27:24.280Z,7.1
2022-11-30T09:32:24.037Z,7.1
2022-11-30T09:37:23.949Z,7.2
2022-11-30T09:42:23.868Z,7.3
2022-11-30T09:52:23.763Z,7.3
2022-11-30T09:57:23.681Z,7.4
2022-11-30T10:02:23.741Z,7.5
2022-11-30T10:07:23.623Z,7.5
2022-11-30T10:12:23.657Z,7.7
2022-11-30T10:17:27.615Z,7.8
2022-11-30T10:22:23.551Z,7.9
2022-11-30T10:27:23.434Z,7.9
2022-11-30T10:32:23.369Z,7.9
2022-11-30T10:37:23.295Z,8.1
2022-11-30T10:42:23.363Z,8.1
2022-11-30T10:47:23.259Z,8.2
2022-11-30T10:52:23.221Z,8.4
2022-11-30T10:57:23.201Z,8.5
2022-11-30T11:02:23.198Z,8.8
2022-11-30T11:07:23.225Z,9.1
2022-11-30T11:12:23.228Z,9.2
2022-11-30T11:17:25.135Z,9.2
2022-11-30T11:22:23.101Z,9.4
2022-11-30T11:27:23.112Z,9.6
2022-11-30T11:32:23.151Z,9.8
2022-11-30T11:37:23.228Z,9.9
2022-11-30T11:42:23.265Z,10.0
2022-11-30T11:47:23.199Z,10.1
2022-11-30T11:52:23.234Z,10.0
2022-11-30T11:57:23.247Z,10.2
2022-11-30T12:02:23.361Z,10.2
2022-11-30T12:07:23.385Z,10.3
2022-11-30T12:12:23.393Z,10.5
2022-11-30T12:17:23.427Z,10.4
2022-11-30T12:22:23.481Z,10.4
2022-11-30T12:27:23.445Z,10.4
2022-11-30T12:32:23.481Z,10.5
2022-11-30T12:37:23.499Z,10.3
2022-11-30T12:42:23.552Z,10.4
2022-11-30T12:47:23.586Z,10.7
2022-11-30T12:52:23.549Z,10.6
2022-11-30T12:57:23.556Z,10.6
2022-11-30T13:02:23.606Z,10.6
2022-11-30T13:07:23.625Z,10.4
2022-11-30T13:12:23.561Z,10.6
2022-11-30T13:17:23.618Z,10.5
2022-11-30T13:22:23.592Z,10.5
2022-11-30T13:27:23.604Z,10.4
2022-11-30T13:32:56.153Z,10.3
2022-11-30T13:37:27.389Z,10.4
2022-11-30T13:42:23.596Z,10.3
2022-11-30T13:47:23.534Z,10.3
2022-11-30T13:52:24.291Z,10.4
2022-11-30T13:57:23.505Z,10.3
2022-11-30T14:02:23.586Z,10.2
2022-11-30T14:07:23.564Z,10.1
2022-11-30T14:12:23.517Z,9.8
2022-11-30T14:17:23.482Z,9.8
2022-11-30T14:22:23.505Z,9.8
2022-11-30T14:27:23.450Z,9.8
2022-11-30T14:32:23.482Z,9.8
2022-11-30T14:37:23.331Z,9.8
2022-11-30T14:42:23.377Z,9.7
2022-11-30T14:47:23.341Z,9.6
2022-11-30T14:52:25.822Z,9.6
2022-11-30T14:57:23.339Z,9.6
2022-11-30T15:02:23.331Z,9.5
2022-11-30T15:07:23.299Z,9.6
2022-11-30T15:12:23.217Z,9.4
2022-11-30T15:17:23.326Z,9.3
2022-11-30T15:22:23.266Z,9.2
2022-11-30T15:27:23.223Z,9.0
2022-11-30T15:32:23.231Z,9.0
2022-11-30T15:37:27.189Z,9.1
2022-11-30T15:42:23.180Z,9.0
2022-11-30T15:47:23.209Z,8.9
2022-11-30T15:52:25.692Z,8.9
2022-11-30T15:57:23.103Z,8.8
2022-11-30T16:02:23.149Z,8.7
2022-11-30T16:07:23.107Z,8.5
2022-11-30T16:12:23.042Z,8.3
2022-11-30T16:17:23.004Z,8.1
2022-11-30T16:22:22.900Z,8.0
2022-11-30T16:27:26.977Z,7.8
2022-11-30T16:32:22.731Z,7.7
2022-11-30T16:37:22.695Z,7.6
2022-11-30T16:42:22.584Z,7.4
2022-11-30T16:47:22.434Z,7.3
2022-11-30T16:52:22.334Z,7.2
2022-11-30T16:57:22.266Z,7.1
2022-11-30T17:02:22.225Z,6.9
2022-11-30T17:07:22.208Z,6.9
2022-11-30T17:12:24.425Z,6.7
2022-11-30T17:17:21.900Z,6.6
2022-11-30T17:22:21.749Z,6.4
2022-11-30T17:27:21.690Z,6.4
2022-11-30T17:32:21.521Z,6.3
2022-11-30T17:37:21.388Z,6.2
2022-11-30T17:42:21.293Z,6.1
2022-11-30T17:47:21.170Z,6.1
2022-11-30T17:52:21.020Z,6.0
2022-11-30T17:57:20.696Z,5.9
2022-11-30T18:02:20.729Z,5.8
2022-11-30T18:07:20.656Z,5.8
2022-11-30T18:12:22.420Z,5.6
2022-11-30T18:17:20.264Z,5.5
2022-11-30T18:22:20.113Z,5.5
2022-11-30T18:27:19.935Z,5.4
2022-11-30T18:32:19.833Z,5.3
2022-11-30T18:37:19.678Z,5.2
2022-11-30T18:42:22.048Z,5.2
2022-11-30T18:47:19.230Z,5.1
2022-11-30T18:52:19.239Z,5.1
2022-11-30T18:57:18.881Z,5.0
2022-11-30T19:02:19.154Z,4.9
2022-11-30T19:07:19.033Z,4.8
2022-11-30T19:12:18.622Z,4.7
2022-11-30T19:17:18.286Z,4.7
2022-11-30T19:22:18.150Z,4.7
2022-11-30T19:27:17.917Z,4.6
2022-11-30T19:32:17.871Z,4.5
2022-11-30T19:37:17.481Z,4.4
2022-11-30T19:42:20.171Z,4.4
2022-11-30T19:52:17.130Z,4.2
2022-11-30T19:57:20.923Z,4.1
2022-11-30T20:02:16.782Z,4.1
2022-11-30T20:07:16.500Z,4.1
2022-11-30T20:12:18.343Z,3.9
2022-11-30T20:22:17.273Z,3.8
2022-11-30T20:24:45.242Z,3.7
2022-11-30T20:27:15.694Z,3.6
2022-11-30T20:32:15.511Z,3.6
2022-11-30T20:37:15.267Z,3.5
2022-11-30T20:42:15.050Z,3.4
2022-11-30T20:57:16.911Z,3.1
2022-11-30T21:02:14.317Z,3.1
2022-11-30T21:12:13.714Z,3.0
2022-11-30T21:17:13.480Z,2.9
2022-11-30T21:22:13.244Z,2.9
2022-11-30T21:27:12.992Z,2.8
2022-11-30T21:32:12.769Z,2.8
2022-11-30T21:37:12.509Z,2.8
2022-11-30T21:42:12.219Z,2.8
2022-11-30T21:47:11.962Z,2.8
2022-11-30T21:52:13.754Z,2.7
2022-11-30T21:57:13.516Z,2.6
2022-11-30T22:02:11.335Z,2.6
2022-11-30T22:07:11.056Z,2.6
2022-11-30T22:17:10.662Z,2.8
2022-11-30T22:22:12.398Z,2.9
2022-11-30T22:27:10.195Z,2.8
2022-11-30T22:32:09.984Z,2.8
2022-11-30T22:35:00.909Z,2.8
2022-11-30T22:37:09.828Z,2.7
2022-11-30T22:42:09.537Z,2.6
2022-11-30T22:47:11.392Z,2.5
2022-11-30T22:52:09.160Z,2.5
2022-11-30T22:57:08.927Z,2.4
2022-11-30T23:02:08.701Z,2.4
2022-11-30T23:07:08.505Z,2.2
2022-11-30T23:12:08.446Z,2.2
2022-11-30T23:17:07.982Z,2.1
2022-11-30T23:22:07.729Z,2.1
2022-11-30T23:27:07.542Z,2.0
2022-11-30T23:32:07.260Z,2.0
2022-11-30T23:37:07.041Z,1.9
2022-11-30T23:42:06.795Z,1.9
2022-11-30T23:47:06.642Z,1.8
2022-11-30T23:52:06.345Z,1.9
2022-11-30T23:57:06.059Z,1.9
